Time;durP1;ratioP1;P1;durP2;ratioP2;P2;SDS_P1;SDS_P2;PMS_P1;PMS_P2;Temp;Humidity;BMP_temperature;BMP_pressure;BME280_temperature;BME280_humidity;BME280_pressure;Samples;Min_cycle;Max_cycle;Signal;HPM_P1;HPM_P2
2021/10/09 00:01:55;;;;;;;10.85;5.00;;;24.30;97.10;;;;;;5033305;28;20488;-72
2021/10/09 00:04:22;;;;;;;11.40;4.93;;;24.10;96.40;;;;;;5033041;28;20067;-73
2021/10/09 00:06:50;;;;;;;10.00;4.45;;;24.10;97.00;;;;;;5033206;28;20021;-73
2021/10/09 00:09:18;;;;;;;11.60;4.63;;;24.40;97.10;;;;;;5015386;28;20026;-74
2021/10/09 00:11:45;;;;;;;11.27;4.72;;;24.70;97.30;;;;;;5033095;28;20025;-72
2021/10/09 00:14:14;;;;;;;9.88;4.43;;;24.90;97.20;;;;;;5032425;28;20053;-72
2021/10/09 00:16:46;;;;;;;10.30;4.43;;;25.10;95.70;;;;;;5033237;28;20025;-71
2021/10/09 00:19:14;;;;;;;7.68;4.32;;;25.10;95.40;;;;;;5033284;28;20076;-73
2021/10/09 00:21:45;;;;;;;7.70;3.70;;;25.20;94.20;;;;;;5033469;28;20438;-72
2021/10/09 00:24:18;;;;;;;8.57;4.35;;;25.40;94.20;;;;;;5031717;28;20059;-72
2021/10/09 00:26:47;;;;;;;10.48;4.30;;;25.70;94.20;;;;;;5033043;28;20095;-71
2021/10/09 00:29:14;;;;;;;9.57;4.72;;;25.80;93.80;;;;;;5033319;28;20536;-71
2021/10/09 00:31:42;;;;;;;12.20;4.45;;;25.50;93.80;;;;;;5033036;28;20014;-70
2021/10/09 00:34:09;;;;;;;14.13;4.70;;;25.30;94.60;;;;;;5031847;28;20029;-72
2021/10/09 00:36:37;;;;;;;10.43;4.57;;;25.40;94.10;;;;;;5033126;28;20025;-71
2021/10/09 00:39:04;;;;;;;11.10;4.05;;;25.50;95.00;;;;;;5032883;28;20112;-73
2021/10/09 00:41:32;;;;;;;10.35;4.38;;;25.60;94.30;;;;;;5033327;28;20447;-72
2021/10/09 00:44:18;;;;;;;13.93;5.07;;;25.70;94.10;;;;;;5032553;28;20048;-73
2021/10/09 00:46:46;;;;;;;13.55;4.78;;;25.60;95.10;;;;;;5033020;28;20028;-72
2021/10/09 00:49:16;;;;;;;12.35;4.90;;;25.60;94.30;;;;;;5032687;28;20021;-72
2021/10/09 00:51:48;;;;;;;12.73;5.00;;;25.90;93.20;;;;;;5032908;28;20091;-71
2021/10/09 00:54:19;;;;;;;12.50;4.40;;;25.80;95.40;;;;;;5032520;28;20045;-72
2021/10/09 00:56:48;;;;;;;13.02;4.93;;;25.90;94.80;;;;;;5032852;28;20117;-72
2021/10/09 00:59:17;;;;;;;15.05;4.90;;;25.80;95.60;;;;;;5032720;28;20044;-71
2021/10/09 01:01:46;;;;;;;13.30;4.72;;;26.10;95.70;;;;;;5033028;28;20029;-73
2021/10/09 01:04:13;;;;;;;9.45;4.88;;;26.30;95.20;;;;;;5032513;28;20057;-70
2021/10/09 01:06:40;;;;;;;12.50;5.25;;;26.20;94.60;;;;;;5032738;28;20043;-72
2021/10/09 01:09:08;;;;;;;12.38;4.55;;;26.10;95.30;;;;;;5032425;28;20024;-70
2021/10/09 01:11:35;;;;;;;11.50;4.75;;;26.20;95.10;;;;;;5032712;28;20025;-70
2021/10/09 01:14:02;;;;;;;14.23;4.85;;;26.20;95.00;;;;;;5032527;28;20021;-72
2021/10/09 01:16:30;;;;;;;14.98;5.53;;;26.70;95.00;;;;;;5032427;28;20018;-69
2021/10/09 01:18:59;;;;;;;11.85;4.50;;;26.90;94.60;;;;;;5032462;28;20136;-70
2021/10/09 01:21:26;;;;;;;11.10;4.63;;;26.90;94.20;;;;;;5032647;28;20025;-71
2021/10/09 01:23:54;;;;;;;12.02;4.50;;;26.90;93.30;;;;;;5014886;28;20493;-69
2021/10/09 01:26:22;;;;;;;11.90;4.40;;;26.80;93.70;;;;;;5035851;28;20473;-71
2021/10/09 01:28:52;;;;;;;11.43;4.70;;;26.20;93.80;;;;;;5036183;28;20477;-71
2021/10/09 01:31:20;;;;;;;10.70;4.55;;;26.00;93.90;;;;;;5035904;28;20029;-72
2021/10/09 01:33:47;;;;;;;9.25;4.05;;;26.20;94.00;;;;;;5034193;28;20036;-72
2021/10/09 01:36:15;;;;;;;14.52;5.72;;;26.50;93.50;;;;;;5036016;28;20026;-71
2021/10/09 01:38:52;;;;;;;10.05;5.75;;;26.70;92.80;;;;;;5035854;28;20442;-72
2021/10/09 01:41:20;;;;;;;12.48;7.30;;;26.60;93.30;;;;;;5034574;28;20108;-71
2021/10/09 01:43:47;;;;;;;14.95;7.70;;;27.00;92.60;;;;;;5034336;28;20486;-71
2021/10/09 01:46:15;;;;;;;18.67;8.85;;;27.10;92.90;;;;;;5035588;28;20032;-71
2021/10/09 01:48:42;;;;;;;13.48;9.50;;;27.20;92.30;;;;;;5017800;28;20112;-72
2021/10/09 01:51:11;;;;;;;16.65;9.10;;;27.00;92.10;;;;;;5035475;28;20049;-71
2021/10/09 01:53:42;;;;;;;15.20;7.38;;;27.00;92.90;;;;;;5035298;28;20104;-71
2021/10/09 01:56:10;;;;;;;12.75;6.40;;;26.80;93.10;;;;;;5035750;28;20020;-71
2021/10/09 01:58:38;;;;;;;13.57;5.57;;;26.80;92.70;;;;;;5035430;28;20021;-72
2021/10/09 02:01:06;;;;;;;12.65;5.53;;;26.80;93.30;;;;;;5035376;28;20377;-71
2021/10/09 02:03:36;;;;;;;12.77;5.30;;;27.00;93.90;;;;;;5035187;28;20045;-71
2021/10/09 02:06:04;;;;;;;12.73;5.35;;;27.40;92.70;;;;;;5035390;28;20132;-72
2021/10/09 02:08:31;;;;;;;13.57;6.63;;;27.30;92.00;;;;;;5035284;28;20049;-71
2021/10/09 02:11:02;;;;;;;15.15;6.60;;;27.00;91.30;;;;;;5017695;28;20511;-71
2021/10/09 02:27:34;;;;;;;11.57;5.00;;;26.60;91.90;;;;;;5035287;28;20024;-71
2021/10/09 02:30:01;;;;;;;6.32;3.90;;;26.40;92.00;;;;;;5017258;28;20026;-71
2021/10/09 02:32:28;;;;;;;12.95;4.18;;;26.70;91.80;;;;;;5017474;28;20030;-71
2021/10/09 02:34:56;;;;;;;11.32;4.60;;;26.90;91.20;;;;;;5035149;28;20017;-71
2021/10/09 02:37:23;;;;;;;9.98;4.57;;;26.90;90.60;;;;;;5016733;28;20029;-71
2021/10/09 02:39:50;;;;;;;8.57;3.65;;;27.10;90.70;;;;;;5034742;28;20075;-72
2021/10/09 02:42:18;;;;;;;9.93;4.00;;;27.20;90.20;;;;;;5034990;28;20112;-71
2021/10/09 02:44:45;;;;;;;6.85;3.90;;;26.70;89.40;;;;;;5034771;28;20021;-72
2021/10/09 02:47:12;;;;;;;9.13;3.95;;;26.60;90.60;;;;;;5034826;28;20367;-71
2021/10/09 02:49:39;;;;;;;9.35;4.13;;;26.80;90.80;;;;;;5035071;28;20075;-71
2021/10/09 02:52:07;;;;;;;7.55;4.35;;;27.00;90.70;;;;;;5034699;28;20449;-71
2021/10/09 02:54:34;;;;;;;10.30;4.30;;;27.00;91.10;;;;;;5034445;28;20021;-71
2021/10/09 02:57:01;;;;;;;9.57;4.25;;;27.10;90.90;;;;;;5016696;28;20033;-71
2021/10/09 02:59:28;;;;;;;10.15;3.90;;;27.00;90.30;;;;;;5016575;28;20018;-71
2021/10/09 03:01:56;;;;;;;11.13;4.55;;;27.10;90.80;;;;;;5034695;28;20056;-71
2021/10/09 03:04:23;;;;;;;10.80;3.80;;;26.80;90.90;;;;;;5034191;28;20041;-71
2021/10/09 03:06:50;;;;;;;9.35;3.80;;;26.40;91.00;;;;;;5034288;28;20021;-71
2021/10/09 03:09:18;;;;;;;7.25;3.75;;;26.70;90.70;;;;;;5016691;28;20378;-72
2021/10/09 03:11:45;;;;;;;7.53;4.03;;;26.70;88.60;;;;;;5034443;28;20515;-71
2021/10/09 03:14:12;;;;;;;9.93;4.18;;;26.70;90.50;;;;;;5034307;28;20080;-71
2021/10/09 03:16:40;;;;;;;8.23;3.47;;;26.80;90.10;;;;;;5034134;28;20022;-71
2021/10/09 03:19:07;;;;;;;8.00;3.22;;;26.90;88.90;;;;;;5034052;28;20063;-71
2021/10/09 03:21:34;;;;;;;10.90;3.38;;;27.00;87.00;;;;;;5034106;28;20022;-71
2021/10/09 03:24:02;;;;;;;7.63;2.67;;;27.20;88.20;;;;;;5016293;28;20370;-71
2021/10/09 03:26:29;;;;;;;7.30;3.58;;;26.90;87.20;;;;;;5033987;28;20028;-72
2021/10/09 03:28:56;;;;;;;7.80;3.40;;;27.00;90.20;;;;;;5033880;28;20080;-72
2021/10/09 03:31:24;;;;;;;7.80;3.25;;;27.10;89.20;;;;;;5033862;28;20347;-71
2021/10/09 03:33:51;;;;;;;6.15;3.55;;;27.10;84.40;;;;;;5033831;28;20484;-71
2021/10/09 03:36:18;;;;;;;6.18;3.53;;;27.10;84.10;;;;;;5034001;28;20132;-70
2021/10/09 03:38:46;;;;;;;7.03;3.63;;;27.10;82.40;;;;;;5033856;28;20041;-69
2021/10/09 03:41:14;;;;;;;7.22;3.50;;;27.10;83.00;;;;;;5033789;28;20041;-69
2021/10/09 03:43:43;;;;;;;7.95;3.00;;;27.00;81.20;;;;;;5033677;28;20080;-70
2021/10/09 03:46:26;;;;;;;6.75;3.38;;;27.30;82.00;;;;;;5033438;28;20025;-69
2021/10/09 03:49:02;;;;;;;6.40;3.85;;;27.30;82.70;;;;;;5032384;28;20049;-68
2021/10/09 03:54:15;;;;;;;10.43;4.22;;;27.80;84.90;;;;;;5033237;28;20040;-67
2021/10/09 03:56:42;;;;;;;10.50;4.15;;;27.50;85.40;;;;;;5033211;28;20021;-68
2021/10/09 03:59:10;;;;;;;6.20;3.58;;;27.40;86.50;;;;;;5033367;28;20363;-69
2021/10/09 04:01:37;;;;;;;8.52;3.70;;;27.50;84.50;;;;;;5033590;28;20017;-70
2021/10/09 04:04:04;;;;;;;6.53;3.78;;;27.20;82.80;;;;;;5033449;28;20415;-69
2021/10/09 04:06:32;;;;;;;6.50;3.92;;;27.30;82.30;;;;;;5015305;28;20532;-69
2021/10/09 04:08:59;;;;;;;7.20;4.25;;;27.40;84.60;;;;;;5032910;28;20029;-70
2021/10/09 04:11:26;;;;;;;9.55;4.38;;;27.40;86.60;;;;;;5033112;28;20026;-69
2021/10/09 04:13:54;;;;;;;7.50;4.03;;;27.70;87.50;;;;;;5032834;28;20029;-69
2021/10/09 04:16:21;;;;;;;8.38;4.10;;;27.80;87.90;;;;;;5032769;28;20029;-70
2021/10/09 04:18:48;;;;;;;9.38;4.03;;;27.60;88.10;;;;;;5032896;28;20072;-70
2021/10/09 04:21:16;;;;;;;8.27;4.15;;;27.40;89.30;;;;;;5032923;28;20018;-70
2021/10/09 04:23:43;;;;;;;7.40;4.22;;;27.50;89.00;;;;;;5032895;28;20063;-70
2021/10/09 04:26:10;;;;;;;7.75;4.32;;;27.10;87.60;;;;;;5033503;28;20021;-69
2021/10/09 04:28:38;;;;;;;10.35;3.88;;;27.40;88.20;;;;;;5032972;28;20394;-71
2021/10/09 04:31:05;;;;;;;9.85;3.72;;;27.10;84.70;;;;;;5032973;28;20493;-69
2021/10/09 04:33:32;;;;;;;8.88;4.03;;;27.30;85.00;;;;;;5033035;28;20045;-69
2021/10/09 04:35:59;;;;;;;7.40;3.70;;;27.30;84.80;;;;;;5015451;28;20110;-69
2021/10/09 04:38:27;;;;;;;10.13;4.43;;;27.10;86.10;;;;;;5032949;28;20017;-70
2021/10/09 04:40:54;;;;;;;7.38;4.25;;;27.20;86.00;;;;;;5032671;28;20100;-70
2021/10/09 04:43:21;;;;;;;10.32;4.28;;;27.30;86.10;;;;;;5015306;28;20140;-70
2021/10/09 04:45:49;;;;;;;8.63;3.83;;;27.20;85.30;;;;;;5032829;28;20456;-70
2021/10/09 04:48:16;;;;;;;7.75;4.03;;;27.10;85.40;;;;;;5032851;28;20386;-70
2021/10/09 04:50:43;;;;;;;8.10;4.07;;;27.00;85.50;;;;;;5032636;28;20026;-70
2021/10/09 04:53:11;;;;;;;8.45;4.10;;;27.10;86.20;;;;;;5032889;28;20060;-68
2021/10/09 04:55:38;;;;;;;7.43;4.43;;;26.90;85.80;;;;;;5033119;28;20080;-68
2021/10/09 04:58:05;;;;;;;7.57;4.72;;;26.40;86.00;;;;;;5033077;28;20106;-68
2021/10/09 05:00:33;;;;;;;8.18;4.75;;;26.70;86.70;;;;;;5035328;28;20097;-70
2021/10/09 05:03:00;;;;;;;9.85;5.35;;;27.00;86.90;;;;;;5036795;28;20045;-68
2021/10/09 05:05:27;;;;;;;11.52;4.78;;;26.80;85.30;;;;;;5036128;28;20452;-69
2021/10/09 05:07:55;;;;;;;8.48;5.20;;;26.90;85.40;;;;;;5036245;28;20049;-69
2021/10/09 05:10:25;;;;;;;9.95;5.32;;;26.70;84.20;;;;;;5036410;28;20029;-68
2021/10/09 05:12:52;;;;;;;9.98;5.90;;;26.80;86.00;;;;;;5036669;28;20025;-70
2021/10/09 05:15:20;;;;;;;9.65;7.32;;;26.80;87.00;;;;;;5018523;28;20052;-68
2021/10/09 05:17:47;;;;;;;10.88;7.60;;;26.80;87.40;;;;;;5036065;28;20018;-68
2021/10/09 05:20:14;;;;;;;10.05;7.30;;;26.60;88.70;;;;;;5036432;28;20358;-69
2021/10/09 05:22:42;;;;;;;9.32;6.28;;;26.60;89.20;;;;;;5036417;28;20033;-69
2021/10/09 05:25:09;;;;;;;9.30;6.00;;;26.40;88.90;;;;;;5036577;28;20171;-71
2021/10/09 05:27:38;;;;;;;14.00;6.63;;;26.30;90.30;;;;;;5036112;28;20389;-70
2021/10/09 05:30:09;;;;;;;8.77;5.13;;;26.30;90.20;;;;;;5036182;28;20037;-71
2021/10/09 05:32:46;;;;;;;19.88;5.85;;;26.00;90.80;;;;;;5036165;28;20033;-70
2021/10/09 05:35:14;;;;;;;11.50;5.53;;;25.80;91.50;;;;;;5018317;28;20036;-71
2021/10/09 05:37:42;;;;;;;16.25;5.53;;;25.60;91.90;;;;;;5036386;28;20446;-71
2021/10/09 05:40:10;;;;;;;17.65;6.35;;;25.60;92.20;;;;;;5035751;28;20029;-70
2021/10/09 05:42:37;;;;;;;9.90;4.82;;;25.70;92.60;;;;;;5034291;28;20034;-71
2021/10/09 05:45:05;;;;;;;9.80;4.72;;;25.70;92.70;;;;;;5035990;28;20033;-70
2021/10/09 05:47:32;;;;;;;9.02;4.60;;;25.70;92.60;;;;;;5017886;28;20037;-71
2021/10/09 05:50:03;;;;;;;9.23;4.70;;;25.50;92.10;;;;;;5034402;28;20436;-70
2021/10/09 05:53:11;;;;;;;10.60;4.85;;;25.00;92.60;;;;;;5018095;28;20029;-70
2021/10/09 05:55:31;;;;;;;8.35;4.45;;;24.50;93.30;;;;;;5033695;28;20038;-71
2021/10/09 05:58:21;;;;;;;10.25;4.82;;;24.20;94.20;;;;;;5035565;28;20431;-71
2021/10/09 06:42:23;;;;;;;7.50;3.92;;;23.80;94.40;;;;;;5034825;28;20108;-72
2021/10/09 07:01:22;;;;;;;11.10;4.18;;;24.00;93.80;;;;;;4997303;28;20530;-71
2021/10/09 07:03:49;;;;;;;11.40;4.82;;;24.00;93.90;;;;;;5016903;28;20075;-70
2021/10/09 07:06:18;;;;;;;12.55;4.47;;;23.90;94.20;;;;;;5033951;28;20037;-71
2021/10/09 07:08:45;;;;;;;9.07;4.18;;;23.80;94.30;;;;;;5034202;28;20025;-71
2021/10/09 07:11:15;;;;;;;8.93;4.53;;;23.70;94.90;;;;;;5034270;28;20025;-71
2021/10/09 07:13:43;;;;;;;12.60;4.35;;;23.60;95.40;;;;;;5034235;28;20036;-71
2021/10/09 07:16:10;;;;;;;7.65;4.00;;;23.40;94.50;;;;;;5034246;28;20382;-72
2021/10/09 07:18:38;;;;;;;14.10;5.18;;;23.30;94.60;;;;;;5032629;28;20018;-71
2021/10/09 07:21:05;;;;;;;9.25;4.30;;;23.00;94.30;;;;;;5032596;28;20022;-72
2021/10/09 07:23:32;;;;;;;9.23;3.80;;;23.00;94.40;;;;;;5034075;28;20022;-72
2021/10/09 07:26:00;;;;;;;11.73;4.10;;;22.80;94.20;;;;;;5034018;28;20056;-71
2021/10/09 07:28:27;;;;;;;11.30;4.50;;;23.00;93.90;;;;;;5015739;28;20035;-71
2021/10/09 07:30:54;;;;;;;8.23;3.95;;;22.70;93.50;;;;;;5032512;28;20021;-72
2021/10/09 07:33:21;;;;;;;11.80;5.30;;;22.70;93.70;;;;;;5033593;28;20030;-71
2021/10/09 07:35:49;;;;;;;10.88;4.70;;;22.60;93.90;;;;;;5016075;28;20077;-72
2021/10/09 07:38:17;;;;;;;8.82;4.13;;;22.50;94.10;;;;;;5033797;28;20041;-71
2021/10/09 07:40:45;;;;;;;15.30;5.20;;;22.40;93.60;;;;;;5015405;28;20033;-72
2021/10/09 07:43:12;;;;;;;9.15;4.00;;;22.40;94.00;;;;;;5033784;28;20540;-71
2021/10/09 07:45:39;;;;;;;12.90;4.63;;;22.30;94.00;;;;;;5033655;28;20049;-72
2021/10/09 07:48:07;;;;;;;11.32;4.53;;;22.20;94.70;;;;;;5033451;28;20439;-72
2021/10/09 07:50:34;;;;;;;7.85;3.67;;;22.10;94.80;;;;;;5033569;28;20417;-72
2021/10/09 07:53:02;;;;;;;9.98;4.35;;;22.10;95.30;;;;;;5031859;28;20493;-72
2021/10/09 07:55:29;;;;;;;10.73;5.03;;;22.00;95.60;;;;;;5033385;28;20369;-74
2021/10/09 07:57:57;;;;;;;7.38;3.88;;;21.90;96.10;;;;;;5033275;28;20029;-72
2021/10/09 08:00:24;;;;;;;9.40;5.45;;;21.90;96.20;;;;;;5033270;28;20024;-71
2021/10/09 08:02:53;;;;;;;8.63;4.68;;;21.80;96.40;;;;;;5032878;28;20026;-72
2021/10/09 08:05:23;;;;;;;9.02;4.93;;;21.80;96.50;;;;;;5032766;28;20087;-73
2021/10/09 08:07:51;;;;;;;8.70;4.32;;;21.70;96.70;;;;;;5033213;28;20064;-72
2021/10/09 08:10:18;;;;;;;14.18;4.78;;;21.70;97.10;;;;;;5015136;28;20065;-71
2021/10/09 08:12:45;;;;;;;10.77;4.50;;;21.60;97.20;;;;;;5033184;28;20071;-71
2021/10/09 08:15:13;;;;;;;10.88;5.45;;;21.50;97.50;;;;;;5033256;28;20163;-72
2021/10/09 08:17:40;;;;;;;9.95;4.82;;;21.50;97.70;;;;;;5033168;28;20131;-73
2021/10/09 08:20:08;;;;;;;8.45;4.15;;;21.50;97.90;;;;;;5033300;28;20018;-72
2021/10/09 08:22:39;;;;;;;9.38;4.60;;;21.40;97.90;;;;;;5033200;28;20021;-72
2021/10/09 08:36:30;;;;;;;10.25;4.50;;;21.50;97.30;;;;;;5032330;28;20022;-72
2021/10/09 08:38:51;;;;;;;12.95;4.60;;;21.40;97.10;;;;;;5025254;28;20081;-71
2021/10/09 08:41:19;;;;;;;9.13;4.30;;;21.50;97.10;;;;;;5032805;28;20020;-71
2021/10/09 08:43:51;;;;;;;10.50;4.00;;;21.50;97.00;;;;;;5032900;28;20389;-72
2021/10/09 08:46:20;;;;;;;10.82;4.90;;;21.40;97.00;;;;;;5032704;28;20481;-71
2021/10/09 08:48:48;;;;;;;12.23;5.68;;;21.40;96.60;;;;;;5031249;28;20120;-71
2021/10/09 08:51:27;;;;;;;6.78;4.20;;;21.40;96.70;;;;;;5032621;28;20036;-71
2021/10/09 08:54:03;;;;;;;7.53;3.80;;;21.40;96.60;;;;;;5032449;28;20049;-70
2021/10/09 08:56:33;;;;;;;9.30;4.57;;;21.30;96.70;;;;;;5032487;28;20021;-68
2021/10/09 08:59:36;;;;;;;9.52;4.65;;;21.20;96.90;;;;;;5014755;28;20097;-71
2021/10/09 09:04:55;;;;;;;8.77;4.25;;;21.20;96.70;;;;;;5032218;28;20042;-69
2021/10/09 09:07:54;;;;;;;9.77;5.88;;;21.10;96.80;;;;;;5032502;28;20013;-70
2021/10/09 09:41:22;;;;;;;6.15;4.03;;;20.80;96.30;;;;;;5032125;28;20017;-70
2021/10/09 09:43:52;;;;;;;10.85;4.70;;;20.80;96.20;;;;;;5030724;28;20120;-71
2021/10/09 09:46:26;;;;;;;7.47;4.53;;;20.80;96.00;;;;;;5034114;28;20034;-71
2021/10/09 09:48:54;;;;;;;10.35;4.40;;;20.70;96.10;;;;;;5035869;28;20275;-72
2021/10/09 09:51:23;;;;;;;9.93;4.30;;;20.70;95.70;;;;;;5035500;28;20024;-71
2021/10/09 09:53:51;;;;;;;10.00;4.18;;;20.80;95.60;;;;;;5017733;28;20482;-70
2021/10/09 09:56:19;;;;;;;7.75;4.28;;;20.80;95.60;;;;;;5035690;28;20478;-70
2021/10/09 09:58:54;;;;;;;8.63;4.32;;;20.70;95.90;;;;;;5035397;28;20391;-71
2021/10/09 10:01:23;;;;;;;11.20;5.07;;;20.80;95.90;;;;;;5035427;28;20386;-72
2021/10/09 10:03:51;;;;;;;7.88;3.80;;;20.80;96.40;;;;;;5035276;28;20104;-70
2021/10/09 10:06:18;;;;;;;11.63;4.10;;;20.70;97.10;;;;;;5035262;28;20041;-71
2021/10/09 10:08:46;;;;;;;11.55;4.93;;;20.70;97.40;;;;;;5035377;28;20461;-70
2021/10/09 10:11:18;;;;;;;19.17;11.48;;;20.60;98.10;;;;;;5035117;28;20022;-71
2021/10/09 10:13:48;;;;;;;14.05;5.90;;;20.50;98.70;;;;;;5035140;28;20060;-71
2021/10/09 10:16:15;;;;;;;15.68;5.85;;;20.50;99.40;;;;;;5035105;28;20025;-71
2021/10/09 10:18:46;;;;;;;14.30;5.53;;;20.50;99.90;;;;;;5033829;28;20029;-71
2021/10/09 10:21:15;;;;;;;12.40;5.38;;;20.30;99.90;;;;;;5017247;28;20033;-71
2021/10/09 10:23:44;;;;;;;16.05;5.75;;;20.30;99.90;;;;;;5017227;28;20509;-71
2021/10/09 10:26:28;;;;;;;14.57;5.72;;;20.30;99.90;;;;;;5033529;28;20112;-70
2021/10/09 10:28:55;;;;;;;15.77;6.30;;;20.20;99.90;;;;;;5035038;28;20036;-71
2021/10/09 10:31:23;;;;;;;15.18;6.57;;;20.20;99.90;;;;;;5016989;28;20048;-70
2021/10/09 10:33:58;;;;;;;14.38;6.20;;;20.10;99.90;;;;;;5034780;28;20389;-71
2021/10/09 10:36:40;;;;;;;12.48;6.18;;;20.00;99.90;;;;;;5016939;28;20029;-72
2021/10/09 10:39:09;;;;;;;20.95;6.82;;;20.00;99.90;;;;;;5034870;28;20021;-71
2021/10/09 10:41:56;;;;;;;14.60;6.47;;;19.90;99.90;;;;;;5034697;28;20477;-71
2021/10/09 10:44:59;;;;;;;16.55;6.78;;;19.90;99.90;;;;;;5034784;28;20478;-71
2021/10/09 10:48:00;;;;;;;14.75;7.38;;;19.90;99.90;;;;;;5034603;28;20370;-71
2021/10/09 10:53:35;;;;;;;16.55;7.30;;;19.90;99.90;;;;;;5034682;28;20025;-71
2021/10/09 10:56:08;;;;;;;19.93;7.77;;;19.80;99.90;;;;;;5034561;28;20017;-71
2021/10/09 10:58:37;;;;;;;17.55;8.00;;;19.90;99.90;;;;;;5033908;28;20032;-71
2021/10/09 11:01:21;;;;;;;16.80;7.15;;;19.90;99.90;;;;;;5034193;28;20470;-71
2021/10/09 11:03:56;;;;;;;16.67;7.35;;;19.90;99.90;;;;;;5034301;28;20107;-70
2021/10/09 11:06:25;;;;;;;16.67;6.97;;;19.90;99.90;;;;;;5032869;28;20135;-71
2021/10/09 11:08:54;;;;;;;21.63;7.90;;;20.00;99.90;;;;;;5032856;28;20091;-71
2021/10/09 11:11:47;;;;;;;14.60;6.32;;;20.00;99.90;;;;;;5032767;28;20052;-71
2021/10/09 11:14:27;;;;;;;19.15;7.20;;;20.00;99.90;;;;;;5034039;28;20060;-71
2021/10/09 11:17:05;;;;;;;16.53;7.40;;;20.00;99.90;;;;;;5034044;28;20018;-69
2021/10/09 11:19:47;;;;;;;20.65;8.18;;;20.00;99.90;;;;;;5033975;28;20278;-69
2021/10/09 11:22:17;;;;;;;19.40;7.28;;;20.00;99.90;;;;;;5033994;28;20075;-70
2021/10/09 11:24:52;;;;;;;22.60;8.18;;;20.00;99.90;;;;;;5033897;28;20018;-70
2021/10/09 11:27:21;;;;;;;21.40;7.95;;;20.00;99.90;;;;;;5016116;28;20038;-70
2021/10/09 11:30:10;;;;;;;24.13;8.23;;;19.90;99.90;;;;;;5033757;28;20045;-71
2021/10/09 11:32:41;;;;;;;19.13;8.13;;;19.90;99.90;;;;;;5033710;28;20427;-72
2021/10/09 11:35:10;;;;;;;18.60;8.25;;;19.90;99.90;;;;;;5032402;28;20029;-71
2021/10/09 11:37:52;;;;;;;22.17;9.15;;;19.90;99.90;;;;;;5033588;28;20052;-71
2021/10/09 11:41:25;;;;;;;21.52;8.50;;;19.90;99.90;;;;;;5033669;28;20504;-72
2021/10/09 11:46:26;;;;;;;17.77;7.90;;;19.80;99.90;;;;;;5033569;28;20088;-71
2021/10/09 11:54:46;;;;;;;20.08;8.32;;;19.70;99.90;;;;;;5033398;28;20524;-71
2021/10/09 11:57:13;;;;;;;21.05;8.05;;;19.60;99.90;;;;;;5015582;28;20025;-71
2021/10/09 11:59:41;;;;;;;19.05;8.82;;;19.60;99.90;;;;;;5033246;28;20506;-71
2021/10/09 12:02:11;;;;;;;26.42;10.10;;;19.60;99.90;;;;;;5033219;28;20022;-71
2021/10/09 12:04:38;;;;;;;20.13;9.38;;;19.50;99.90;;;;;;5033199;28;20045;-71
2021/10/09 12:07:09;;;;;;;23.15;10.20;;;19.40;99.90;;;;;;5033084;28;20021;-71
2021/10/09 12:09:36;;;;;;;18.23;9.75;;;19.40;99.90;;;;;;5032326;28;20021;-71
2021/10/09 12:12:14;;;;;;;18.30;9.38;;;19.30;99.90;;;;;;5015256;28;20036;-71
2021/10/09 12:14:42;;;;;;;21.08;10.38;;;19.20;99.90;;;;;;5032986;28;20398;-71
2021/10/09 12:17:09;;;;;;;19.70;9.85;;;19.10;99.90;;;;;;5033059;28;20013;-71
2021/10/09 12:19:37;;;;;;;21.35;9.18;;;19.10;99.90;;;;;;5032966;28;20520;-71
2021/10/09 12:22:08;;;;;;;19.67;10.02;;;19.00;99.90;;;;;;5015090;28;20083;-70
2021/10/09 12:24:52;;;;;;;19.73;10.30;;;19.00;99.90;;;;;;5032912;28;20024;-71
2021/10/09 12:27:41;;;;;;;20.00;10.70;;;19.00;99.90;;;;;;5015492;28;20032;-70
2021/10/09 12:30:10;;;;;;;23.67;10.32;;;18.90;99.90;;;;;;5032909;28;20022;-71
2021/10/09 12:32:46;;;;;;;21.52;11.07;;;18.90;99.90;;;;;;5032758;28;20424;-71
2021/10/09 12:35:24;;;;;;;18.20;11.13;;;18.90;99.90;;;;;;5032946;28;20028;-71
2021/10/09 12:38:18;;;;;;;23.08;13.15;;;18.90;99.90;;;;;;5015143;28;20120;-70
2021/10/09 12:40:48;;;;;;;20.52;12.25;;;18.90;99.90;;;;;;5030463;28;20038;-71
2021/10/09 12:43:20;;;;;;;27.70;15.77;;;18.80;99.90;;;;;;5032812;28;20033;-71
2021/10/09 12:45:48;;;;;;;28.70;15.88;;;18.90;99.90;;;;;;5032670;28;20021;-71
2021/10/09 12:48:17;;;;;;;31.17;18.35;;;18.90;99.90;;;;;;5032789;28;20022;-71
2021/10/09 12:50:45;;;;;;;29.83;16.63;;;18.80;99.90;;;;;;5032701;28;20025;-70
2021/10/09 12:53:12;;;;;;;28.88;18.48;;;18.80;99.90;;;;;;5032511;28;20021;-70
2021/10/09 12:55:41;;;;;;;33.20;20.15;;;18.80;99.90;;;;;;5014920;28;20053;-71
2021/10/09 12:58:09;;;;;;;42.13;23.25;;;18.80;99.90;;;;;;5032612;28;20017;-71
2021/10/09 13:00:38;;;;;;;32.05;20.15;;;18.80;99.90;;;;;;5032599;28;20029;-70
2021/10/09 13:03:06;;;;;;;33.10;25.10;;;18.70;99.90;;;;;;5014800;28;20060;-70
2021/10/09 13:05:33;;;;;;;35.90;24.02;;;18.70;99.90;;;;;;5032418;28;20053;-70
2021/10/09 13:08:03;;;;;;;39.05;23.60;;;18.70;99.90;;;;;;5032416;28;20029;-71
2021/10/09 13:10:34;;;;;;;35.15;24.23;;;18.70;99.90;;;;;;5032428;28;20032;-70
2021/10/09 13:13:01;;;;;;;37.42;24.27;;;18.70;99.90;;;;;;5032348;28;20017;-71
2021/10/09 13:15:29;;;;;;;39.10;23.15;;;18.70;99.90;;;;;;5032386;28;20474;-70
2021/10/09 13:17:56;;;;;;;37.53;25.65;;;18.70;99.90;;;;;;5032392;28;20075;-71
2021/10/09 13:20:28;;;;;;;34.70;22.35;;;18.60;99.90;;;;;;5033065;28;20030;-71
2021/10/09 13:22:55;;;;;;;34.08;22.95;;;18.50;99.90;;;;;;5036321;28;20105;-70
2021/10/09 13:25:22;;;;;;;30.20;21.92;;;18.50;99.90;;;;;;5036216;28;20029;-71
2021/10/09 13:27:49;;;;;;;30.67;21.52;;;18.50;99.90;;;;;;5036147;28;20104;-70
2021/10/09 13:30:17;;;;;;;32.97;22.35;;;18.50;99.90;;;;;;5036122;28;20070;-71
2021/10/09 13:32:44;;;;;;;36.38;24.23;;;18.50;99.90;;;;;;5036033;28;20044;-71
2021/10/09 13:35:11;;;;;;;34.55;23.92;;;18.40;99.90;;;;;;5036158;28;20026;-71
2021/10/09 13:37:52;;;;;;;37.53;23.30;;;18.40;99.90;;;;;;5036044;28;20037;-70
2021/10/09 13:40:20;;;;;;;34.88;24.25;;;18.40;99.90;;;;;;5035991;28;20429;-70
2021/10/09 13:42:48;;;;;;;37.42;23.48;;;18.40;99.90;;;;;;5035809;28;20036;-70
2021/10/09 13:45:15;;;;;;;29.48;21.38;;;18.40;99.90;;;;;;5035769;28;20394;-71
2021/10/09 13:47:43;;;;;;;27.67;20.33;;;18.30;99.90;;;;;;5018582;28;20026;-71
2021/10/09 13:50:12;;;;;;;27.17;18.27;;;18.30;99.90;;;;;;5035753;28;20025;-71
2021/10/09 13:52:40;;;;;;;31.80;21.50;;;18.30;99.90;;;;;;5035650;28;20425;-71
2021/10/09 13:55:08;;;;;;;28.90;20.30;;;18.30;99.90;;;;;;5035694;28;20021;-71
2021/10/09 13:57:35;;;;;;;30.42;19.33;;;18.30;99.90;;;;;;5035578;28;20014;-71
2021/10/09 14:00:03;;;;;;;25.73;18.23;;;18.30;99.90;;;;;;5035584;28;20468;-71
2021/10/09 14:02:31;;;;;;;24.30;17.17;;;18.30;99.90;;;;;;5035578;28;20029;-71
2021/10/09 14:04:59;;;;;;;25.33;18.00;;;18.20;99.90;;;;;;5035232;28;20053;-71
2021/10/09 14:07:26;;;;;;;18.70;16.50;;;18.20;99.90;;;;;;5035420;28;20433;-71
2021/10/09 14:09:54;;;;;;;21.90;17.27;;;18.20;99.90;;;;;;5035468;28;20431;-71
2021/10/09 14:12:21;;;;;;;20.70;16.25;;;18.20;99.90;;;;;;5035291;28;20382;-70
2021/10/09 14:14:49;;;;;;;21.05;16.90;;;18.20;99.90;;;;;;5035224;28;20018;-69
2021/10/09 14:17:16;;;;;;;22.40;17.55;;;18.10;99.90;;;;;;5017487;28;20159;-70
2021/10/09 14:19:43;;;;;;;20.80;17.27;;;18.10;99.90;;;;;;5035259;28;20021;-70
2021/10/09 14:22:10;;;;;;;22.60;16.92;;;18.10;99.90;;;;;;5017413;28;20018;-70
2021/10/09 14:24:38;;;;;;;22.38;16.30;;;18.00;99.90;;;;;;5035215;28;20017;-70
2021/10/09 14:27:05;;;;;;;20.65;14.88;;;18.00;99.90;;;;;;5035153;28;20034;-70
2021/10/09 14:29:32;;;;;;;22.52;15.93;;;18.00;99.90;;;;;;5035095;28;20540;-70
2021/10/09 14:32:00;;;;;;;25.30;17.33;;;18.00;99.90;;;;;;5016281;28;20474;-70
2021/10/09 14:34:27;;;;;;;20.73;15.25;;;17.90;99.90;;;;;;5034846;28;20382;-70
2021/10/09 14:36:54;;;;;;;22.38;16.17;;;17.90;99.90;;;;;;5034991;28;20025;-70
2021/10/09 14:39:23;;;;;;;21.80;15.93;;;17.90;99.90;;;;;;5034985;28;20013;-70
2021/10/09 14:41:51;;;;;;;21.27;15.48;;;17.90;99.90;;;;;;5034848;28;20117;-70
2021/10/09 14:44:18;;;;;;;19.08;13.70;;;17.80;99.90;;;;;;5034801;28;20025;-70
2021/10/09 14:49:19;;;;;;;19.33;14.15;;;17.80;99.90;;;;;;5034745;28;20104;-70
2021/10/09 14:51:55;;;;;;;21.65;13.95;;;17.90;99.90;;;;;;5034753;28;20056;-70
2021/10/09 14:55:37;;;;;;;16.38;12.73;;;17.90;99.90;;;;;;5034618;28;20029;-70
2021/10/09 15:16:17;;;;;;;17.48;12.75;;;17.80;99.90;;;;;;5034744;28;20032;-70
2021/10/09 15:16:52;;;;;;;15.75;11.32;;;17.80;99.90;;;;;;5034212;28;20034;-71
2021/10/09 15:19:19;;;;;;;14.57;11.80;;;17.80;99.90;;;;;;5034157;28;20075;-71
2021/10/09 15:21:49;;;;;;;15.43;11.60;;;17.80;99.90;;;;;;5034141;28;20029;-71
2021/10/09 15:24:16;;;;;;;16.85;11.77;;;17.70;99.90;;;;;;5016333;28;20486;-71